sensor_id;sensor_type;location;lat;lon;timestamp;temperature;humidity
24676;DHT22;12799;53.690;10.114;2022-11-21T00:00:25;-0.70;99.90
24676;DHT22;12799;53.690;10.114;2022-11-21T00:02:28;-0.70;99.90
24676;DHT22;12799;53.690;10.114;2022-11-21T00:04:30;-0.70;99.90
24676;DHT22;12799;53.690;10.114;2022-11-21T00:06:32;-0.60;99.90
24676;DHT22;12799;53.690;10.114;2022-11-21T00:08:34;-0.70;99.90
24676;DHT22;12799;53.690;10.114;2022-11-21T00:10:36;-0.70;99.90
24676;DHT22;12799;53.690;10.114;2022-11-21T00:12:38;-0.70;99.90
24676;DHT22;12799;53.690;10.114;2022-11-21T00:14:39;-0.70;99.90
24676;DHT22;12799;53.690;10.114;2022-11-21T00:16:41;-0.70;99.90
24676;DHT22;12799;53.690;10.114;2022-11-21T00:18:44;-0.70;99.90
24676;DHT22;12799;53.690;10.114;2022-11-21T00:20:46;-0.70;99.90
24676;DHT22;12799;53.690;10.114;2022-11-21T00:22:48;-0.70;99.90
24676;DHT22;12799;53.690;10.114;2022-11-21T00:24:50;-0.70;99.90
24676;DHT22;12799;53.690;10.114;2022-11-21T00:26:51;-0.70;99.90
24676;DHT22;12799;53.690;10.114;2022-11-21T00:28:53;-0.70;99.90
24676;DHT22;12799;53.690;10.114;2022-11-21T00:30:55;-0.80;99.90
24676;DHT22;12799;53.690;10.114;2022-11-21T00:32:56;-0.80;99.90
24676;DHT22;12799;53.690;10.114;2022-11-21T00:35:00;-0.80;99.90
24676;DHT22;12799;53.690;10.114;2022-11-21T00:37:01;-0.80;99.90
24676;DHT22;12799;53.690;10.114;2022-11-21T00:39:03;-0.80;99.90
24676;DHT22;12799;53.690;10.114;2022-11-21T00:41:05;-0.80;99.90
24676;DHT22;12799;53.690;10.114;2022-11-21T00:43:06;-0.80;99.90
24676;DHT22;12799;53.690;10.114;2022-11-21T00:45:09;-0.90;99.90
24676;DHT22;12799;53.690;10.114;2022-11-21T00:47:10;-0.90;99.90
24676;DHT22;12799;53.690;10.114;2022-11-21T00:49:12;-0.90;99.90
24676;DHT22;12799;53.690;10.114;2022-11-21T00:51:15;-0.90;99.90
24676;DHT22;12799;53.690;10.114;2022-11-21T00:53:17;-0.90;99.90
24676;DHT22;12799;53.690;10.114;2022-11-21T00:55:19;-0.90;99.90
24676;DHT22;12799;53.690;10.114;2022-11-21T00:57:20;-0.90;99.90
24676;DHT22;12799;53.690;10.114;2022-11-21T00:59:22;-1.00;99.90
24676;DHT22;12799;53.690;10.114;2022-11-21T01:01:24;-1.00;99.90
24676;DHT22;12799;53.690;10.114;2022-11-21T01:03:25;-1.00;99.90
24676;DHT22;12799;53.690;10.114;2022-11-21T01:05:27;-1.00;99.90
24676;DHT22;12799;53.690;10.114;2022-11-21T01:07:30;-1.00;99.90
24676;DHT22;12799;53.690;10.114;2022-11-21T01:09:32;-1.10;99.90
24676;DHT22;12799;53.690;10.114;2022-11-21T01:11:34;-1.10;99.90
24676;DHT22;12799;53.690;10.114;2022-11-21T01:13:35;-1.00;99.90
24676;DHT22;12799;53.690;10.114;2022-11-21T01:15:37;-1.10;99.90
24676;DHT22;12799;53.690;10.114;2022-11-21T01:17:39;-1.10;99.90
24676;DHT22;12799;53.690;10.114;2022-11-21T01:19:41;-1.10;99.90
24676;DHT22;12799;53.690;10.114;2022-11-21T01:21:43;-1.10;99.90
24676;DHT22;12799;53.690;10.114;2022-11-21T01:23:46;-1.10;99.90
24676;DHT22;12799;53.690;10.114;2022-11-21T01:25:48;-1.20;99.90
24676;DHT22;12799;53.690;10.114;2022-11-21T01:27:50;-1.20;99.90
24676;DHT22;12799;53.690;10.114;2022-11-21T01:29:52;-1.20;99.90
24676;DHT22;12799;53.690;10.114;2022-11-21T01:31:54;-1.20;99.90
24676;DHT22;12799;53.690;10.114;2022-11-21T01:33:56;-1.20;99.90
24676;DHT22;12799;53.690;10.114;2022-11-21T01:36:04;-1.20;99.90
24676;DHT22;12799;53.690;10.114;2022-11-21T01:38:06;-1.20;99.90
24676;DHT22;12799;53.690;10.114;2022-11-21T01:40:10;-1.20;99.90
24676;DHT22;12799;53.690;10.114;2022-11-21T01:42:12;-1.20;99.90
24676;DHT22;12799;53.690;10.114;2022-11-21T01:44:16;-1.20;99.90
24676;DHT22;12799;53.690;10.114;2022-11-21T01:46:18;-1.20;99.90
24676;DHT22;12799;53.690;10.114;2022-11-21T01:48:22;-1.20;99.90
24676;DHT22;12799;53.690;10.114;2022-11-21T01:50:25;-1.30;99.90
24676;DHT22;12799;53.690;10.114;2022-11-21T01:52:27;-1.20;99.90
24676;DHT22;12799;53.690;10.114;2022-11-21T01:54:31;-1.30;99.90
24676;DHT22;12799;53.690;10.114;2022-11-21T01:56:38;-1.20;99.90
24676;DHT22;12799;53.690;10.114;2022-11-21T01:58:41;-1.30;99.90
24676;DHT22;12799;53.690;10.114;2022-11-21T02:00:44;-1.20;99.90
24676;DHT22;12799;53.690;10.114;2022-11-21T02:02:48;-1.20;99.90
24676;DHT22;12799;53.690;10.114;2022-11-21T02:04:52;-1.30;99.90
24676;DHT22;12799;53.690;10.114;2022-11-21T02:06:53;-1.30;99.90
24676;DHT22;12799;53.690;10.114;2022-11-21T02:08:55;-1.30;99.90
24676;DHT22;12799;53.690;10.114;2022-11-21T02:11:01;-1.20;99.90
24676;DHT22;12799;53.690;10.114;2022-11-21T02:13:05;-1.20;99.90
24676;DHT22;12799;53.690;10.114;2022-11-21T02:15:07;-1.20;99.90
24676;DHT22;12799;53.690;10.114;2022-11-21T02:17:09;-1.30;99.90
24676;DHT22;12799;53.690;10.114;2022-11-21T02:19:13;-1.30;99.90
24676;DHT22;12799;53.690;10.114;2022-11-21T02:21:18;-1.20;99.90
24676;DHT22;12799;53.690;10.114;2022-11-21T02:23:24;-1.30;99.90
24676;DHT22;12799;53.690;10.114;2022-11-21T02:25:29;-1.20;99.90
24676;DHT22;12799;53.690;10.114;2022-11-21T02:27:31;-1.30;99.90
24676;DHT22;12799;53.690;10.114;2022-11-21T02:29:33;-1.20;99.90
24676;DHT22;12799;53.690;10.114;2022-11-21T02:31:35;-1.30;99.90
24676;DHT22;12799;53.690;10.114;2022-11-21T02:33:37;-1.20;99.90
24676;DHT22;12799;53.690;10.114;2022-11-21T02:35:38;-1.20;99.90
24676;DHT22;12799;53.690;10.114;2022-11-21T02:37:40;-1.20;99.90
24676;DHT22;12799;53.690;10.114;2022-11-21T02:39:42;-1.20;99.90
24676;DHT22;12799;53.690;10.114;2022-11-21T02:41:48;-1.20;99.90
24676;DHT22;12799;53.690;10.114;2022-11-21T02:43:51;-1.20;99.90
24676;DHT22;12799;53.690;10.114;2022-11-21T02:45:55;-1.30;99.90
24676;DHT22;12799;53.690;10.114;2022-11-21T02:47:58;-1.20;99.90
24676;DHT22;12799;53.690;10.114;2022-11-21T02:50:00;-1.20;99.90
24676;DHT22;12799;53.690;10.114;2022-11-21T02:52:03;-1.20;99.90
24676;DHT22;12799;53.690;10.114;2022-11-21T02:54:05;-1.30;99.90
24676;DHT22;12799;53.690;10.114;2022-11-21T02:56:07;-1.30;99.90
24676;DHT22;12799;53.690;10.114;2022-11-21T02:58:10;-1.30;99.90
24676;DHT22;12799;53.690;10.114;2022-11-21T03:00:13;-1.30;99.90
24676;DHT22;12799;53.690;10.114;2022-11-21T03:02:15;-1.30;99.90
24676;DHT22;12799;53.690;10.114;2022-11-21T03:04:17;-1.30;99.90
24676;DHT22;12799;53.690;10.114;2022-11-21T03:06:18;-1.30;99.90
24676;DHT22;12799;53.690;10.114;2022-11-21T03:08:20;-1.30;99.90
24676;DHT22;12799;53.690;10.114;2022-11-21T03:10:22;-1.30;99.90
24676;DHT22;12799;53.690;10.114;2022-11-21T03:12:23;-1.30;99.90
24676;DHT22;12799;53.690;10.114;2022-11-21T03:14:27;-1.30;99.90
24676;DHT22;12799;53.690;10.114;2022-11-21T03:16:28;-1.30;99.90
24676;DHT22;12799;53.690;10.114;2022-11-21T03:18:30;-1.30;99.90
24676;DHT22;12799;53.690;10.114;2022-11-21T03:20:32;-1.40;99.90
24676;DHT22;12799;53.690;10.114;2022-11-21T03:22:34;-1.40;99.90
24676;DHT22;12799;53.690;10.114;2022-11-21T03:24:36;-1.40;99.90
24676;DHT22;12799;53.690;10.114;2022-11-21T03:26:38;-1.40;99.90
24676;DHT22;12799;53.690;10.114;2022-11-21T03:28:40;-1.40;99.90
24676;DHT22;12799;53.690;10.114;2022-11-21T03:30:43;-1.40;99.90
24676;DHT22;12799;53.690;10.114;2022-11-21T03:32:44;-1.40;99.90
24676;DHT22;12799;53.690;10.114;2022-11-21T03:34:46;-1.40;99.90
24676;DHT22;12799;53.690;10.114;2022-11-21T03:36:48;-1.40;99.90
24676;DHT22;12799;53.690;10.114;2022-11-21T03:38:49;-1.40;99.90
24676;DHT22;12799;53.690;10.114;2022-11-21T03:40:51;-1.40;99.90
24676;DHT22;12799;53.690;10.114;2022-11-21T03:42:53;-1.40;99.90
24676;DHT22;12799;53.690;10.114;2022-11-21T03:44:55;-1.40;99.90
24676;DHT22;12799;53.690;10.114;2022-11-21T03:46:58;-1.50;99.90
24676;DHT22;12799;53.690;10.114;2022-11-21T03:48:59;-1.50;99.90
24676;DHT22;12799;53.690;10.114;2022-11-21T03:51:01;-1.50;99.90
24676;DHT22;12799;53.690;10.114;2022-11-21T03:53:03;-1.50;99.90
24676;DHT22;12799;53.690;10.114;2022-11-21T03:55:05;-1.50;99.90
24676;DHT22;12799;53.690;10.114;2022-11-21T03:57:06;-1.50;99.90
24676;DHT22;12799;53.690;10.114;2022-11-21T03:59:08;-1.50;99.90
24676;DHT22;12799;53.690;10.114;2022-11-21T04:01:10;-1.50;99.90
24676;DHT22;12799;53.690;10.114;2022-11-21T04:03:14;-1.50;99.90
24676;DHT22;12799;53.690;10.114;2022-11-21T04:05:16;-1.50;99.90
24676;DHT22;12799;53.690;10.114;2022-11-21T04:07:18;-1.50;99.90
24676;DHT22;12799;53.690;10.114;2022-11-21T04:09:19;-1.50;99.90
24676;DHT22;12799;53.690;10.114;2022-11-21T04:11:21;-1.50;99.90
24676;DHT22;12799;53.690;10.114;2022-11-21T04:13:24;-1.50;99.90
24676;DHT22;12799;53.690;10.114;2022-11-21T04:15:25;-1.60;99.90
24676;DHT22;12799;53.690;10.114;2022-11-21T04:17:27;-1.60;99.90
24676;DHT22;12799;53.690;10.114;2022-11-21T04:19:30;-1.60;99.90
24676;DHT22;12799;53.690;10.114;2022-11-21T04:21:32;-1.60;99.90
24676;DHT22;12799;53.690;10.114;2022-11-21T04:23:34;-1.60;99.90
24676;DHT22;12799;53.690;10.114;2022-11-21T04:25:36;-1.60;99.90
24676;DHT22;12799;53.690;10.114;2022-11-21T04:27:37;-1.60;99.90
24676;DHT22;12799;53.690;10.114;2022-11-21T04:29:39;-1.70;99.90
24676;DHT22;12799;53.690;10.114;2022-11-21T04:31:41;-1.70;99.90
24676;DHT22;12799;53.690;10.114;2022-11-21T04:33:42;-1.70;99.90
24676;DHT22;12799;53.690;10.114;2022-11-21T04:35:46;-1.70;99.90
24676;DHT22;12799;53.690;10.114;2022-11-21T04:37:47;-1.80;99.90
24676;DHT22;12799;53.690;10.114;2022-11-21T04:39:49;-1.70;99.90
24676;DHT22;12799;53.690;10.114;2022-11-21T04:41:51;-1.80;99.90
24676;DHT22;12799;53.690;10.114;2022-11-21T04:43:52;-1.80;99.90
24676;DHT22;12799;53.690;10.114;2022-11-21T04:45:54;-1.80;99.90
24676;DHT22;12799;53.690;10.114;2022-11-21T04:47:56;-1.80;99.90
24676;DHT22;12799;53.690;10.114;2022-11-21T04:49:58;-1.80;99.90
24676;DHT22;12799;53.690;10.114;2022-11-21T04:52:01;-1.80;99.90
24676;DHT22;12799;53.690;10.114;2022-11-21T04:54:03;-1.80;99.90
24676;DHT22;12799;53.690;10.114;2022-11-21T04:56:05;-1.80;99.90
24676;DHT22;12799;53.690;10.114;2022-11-21T04:58:06;-1.80;99.90
24676;DHT22;12799;53.690;10.114;2022-11-21T05:00:08;-1.80;99.90
24676;DHT22;12799;53.690;10.114;2022-11-21T05:02:10;-1.90;99.90
24676;DHT22;12799;53.690;10.114;2022-11-21T05:04:12;-1.80;99.90
24676;DHT22;12799;53.690;10.114;2022-11-21T05:06:14;-1.90;99.90
24676;DHT22;12799;53.690;10.114;2022-11-21T05:08:17;-1.90;99.90
24676;DHT22;12799;53.690;10.114;2022-11-21T05:10:18;-1.90;99.90
24676;DHT22;12799;53.690;10.114;2022-11-21T05:12:20;-1.90;99.90
24676;DHT22;12799;53.690;10.114;2022-11-21T05:14:39;-1.90;99.90
24676;DHT22;12799;53.690;10.114;2022-11-21T05:16:41;-1.90;99.90
24676;DHT22;12799;53.690;10.114;2022-11-21T05:18:43;-2.00;99.90
24676;DHT22;12799;53.690;10.114;2022-11-21T05:20:44;-2.00;99.90
24676;DHT22;12799;53.690;10.114;2022-11-21T05:22:49;-2.00;99.90
24676;DHT22;12799;53.690;10.114;2022-11-21T05:24:53;-2.10;99.90
24676;DHT22;12799;53.690;10.114;2022-11-21T05:26:54;-2.10;99.90
24676;DHT22;12799;53.690;10.114;2022-11-21T05:28:56;-2.10;99.90
24676;DHT22;12799;53.690;10.114;2022-11-21T05:30:58;-2.10;99.90
24676;DHT22;12799;53.690;10.114;2022-11-21T05:32:59;-2.10;99.90
24676;DHT22;12799;53.690;10.114;2022-11-21T05:35:01;-2.10;99.90
24676;DHT22;12799;53.690;10.114;2022-11-21T05:37:03;-2.10;99.90
24676;DHT22;12799;53.690;10.114;2022-11-21T05:39:04;-2.10;99.90
24676;DHT22;12799;53.690;10.114;2022-11-21T05:41:08;-2.10;99.90
24676;DHT22;12799;53.690;10.114;2022-11-21T05:43:10;-2.10;99.90
24676;DHT22;12799;53.690;10.114;2022-11-21T05:45:29;-2.10;99.90
24676;DHT22;12799;53.690;10.114;2022-11-21T05:47:30;-2.20;99.90
24676;DHT22;12799;53.690;10.114;2022-11-21T05:49:32;-2.20;99.90
24676;DHT22;12799;53.690;10.114;2022-11-21T05:51:34;-2.20;99.90
24676;DHT22;12799;53.690;10.114;2022-11-21T05:53:35;-2.20;99.90
24676;DHT22;12799;53.690;10.114;2022-11-21T05:55:37;-2.20;99.90
24676;DHT22;12799;53.690;10.114;2022-11-21T05:57:40;-2.20;99.90
24676;DHT22;12799;53.690;10.114;2022-11-21T05:59:42;-2.20;99.90
24676;DHT22;12799;53.690;10.114;2022-11-21T06:01:44;-2.20;99.90
24676;DHT22;12799;53.690;10.114;2022-11-21T06:04:02;-2.20;99.90
24676;DHT22;12799;53.690;10.114;2022-11-21T06:06:04;-2.20;99.90
24676;DHT22;12799;53.690;10.114;2022-11-21T06:08:06;-2.20;99.90
24676;DHT22;12799;53.690;10.114;2022-11-21T06:10:08;-2.20;99.90
24676;DHT22;12799;53.690;10.114;2022-11-21T06:12:10;-2.20;99.90
24676;DHT22;12799;53.690;10.114;2022-11-21T06:14:13;-2.20;99.90
24676;DHT22;12799;53.690;10.114;2022-11-21T06:16:15;-2.30;99.90
24676;DHT22;12799;53.690;10.114;2022-11-21T06:18:17;-2.20;99.90
24676;DHT22;12799;53.690;10.114;2022-11-21T06:20:19;-2.20;99.90
24676;DHT22;12799;53.690;10.114;2022-11-21T06:22:21;-2.20;99.90
24676;DHT22;12799;53.690;10.114;2022-11-21T06:24:22;-2.20;99.90
24676;DHT22;12799;53.690;10.114;2022-11-21T06:26:25;-2.20;99.90
24676;DHT22;12799;53.690;10.114;2022-11-21T06:28:29;-2.20;99.90
24676;DHT22;12799;53.690;10.114;2022-11-21T06:30:32;-2.20;99.90
24676;DHT22;12799;53.690;10.114;2022-11-21T06:32:35;-2.20;99.90
24676;DHT22;12799;53.690;10.114;2022-11-21T06:34:36;-2.20;99.90
24676;DHT22;12799;53.690;10.114;2022-11-21T06:36:38;-2.20;99.90
24676;DHT22;12799;53.690;10.114;2022-11-21T06:38:40;-2.20;99.90
24676;DHT22;12799;53.690;10.114;2022-11-21T06:40:42;-2.20;99.90
24676;DHT22;12799;53.690;10.114;2022-11-21T06:42:43;-2.20;99.90
24676;DHT22;12799;53.690;10.114;2022-11-21T06:44:45;-2.20;99.90
24676;DHT22;12799;53.690;10.114;2022-11-21T06:46:48;-2.20;99.90
24676;DHT22;12799;53.690;10.114;2022-11-21T06:48:50;-2.20;99.90
24676;DHT22;12799;53.690;10.114;2022-11-21T06:50:51;-2.20;99.90
24676;DHT22;12799;53.690;10.114;2022-11-21T06:52:55;-2.20;99.90
24676;DHT22;12799;53.690;10.114;2022-11-21T06:54:57;-2.20;99.90
24676;DHT22;12799;53.690;10.114;2022-11-21T06:56:58;-2.20;99.90
24676;DHT22;12799;53.690;10.114;2022-11-21T06:59:00;-2.20;99.90
24676;DHT22;12799;53.690;10.114;2022-11-21T07:01:02;-2.20;99.90
24676;DHT22;12799;53.690;10.114;2022-11-21T07:03:05;-2.20;99.90
24676;DHT22;12799;53.690;10.114;2022-11-21T07:05:07;-2.20;99.90
24676;DHT22;12799;53.690;10.114;2022-11-21T07:07:09;-2.20;99.90
24676;DHT22;12799;53.690;10.114;2022-11-21T07:09:11;-2.20;99.90
24676;DHT22;12799;53.690;10.114;2022-11-21T07:11:13;-2.30;99.90
24676;DHT22;12799;53.690;10.114;2022-11-21T07:13:15;-2.30;99.90
24676;DHT22;12799;53.690;10.114;2022-11-21T07:15:21;-2.30;99.90
24676;DHT22;12799;53.690;10.114;2022-11-21T07:17:23;-2.30;99.90
24676;DHT22;12799;53.690;10.114;2022-11-21T07:19:26;-2.30;99.90
24676;DHT22;12799;53.690;10.114;2022-11-21T07:21:28;-2.30;99.90
24676;DHT22;12799;53.690;10.114;2022-11-21T07:23:30;-2.30;99.90
24676;DHT22;12799;53.690;10.114;2022-11-21T07:25:32;-2.30;99.90
24676;DHT22;12799;53.690;10.114;2022-11-21T07:27:34;-2.30;99.90
24676;DHT22;12799;53.690;10.114;2022-11-21T07:29:35;-2.30;99.90
24676;DHT22;12799;53.690;10.114;2022-11-21T07:31:37;-2.30;99.90
24676;DHT22;12799;53.690;10.114;2022-11-21T07:33:39;-2.30;99.90
24676;DHT22;12799;53.690;10.114;2022-11-21T07:35:43;-2.40;99.90
24676;DHT22;12799;53.690;10.114;2022-11-21T07:37:45;-2.30;99.90
24676;DHT22;12799;53.690;10.114;2022-11-21T07:39:47;-2.30;99.90
24676;DHT22;12799;53.690;10.114;2022-11-21T07:41:49;-2.30;99.90
24676;DHT22;12799;53.690;10.114;2022-11-21T07:43:50;-2.30;99.90
24676;DHT22;12799;53.690;10.114;2022-11-21T07:45:52;-2.30;99.90
24676;DHT22;12799;53.690;10.114;2022-11-21T07:47:57;-2.30;99.90
24676;DHT22;12799;53.690;10.114;2022-11-21T07:49:59;-2.30;99.90
24676;DHT22;12799;53.690;10.114;2022-11-21T07:52:02;-2.40;99.90
24676;DHT22;12799;53.690;10.114;2022-11-21T07:54:04;-2.40;99.90
24676;DHT22;12799;53.690;10.114;2022-11-21T07:56:05;-2.40;99.90
24676;DHT22;12799;53.690;10.114;2022-11-21T07:58:09;-2.40;99.90
24676;DHT22;12799;53.690;10.114;2022-11-21T08:00:11;-2.30;99.90
24676;DHT22;12799;53.690;10.114;2022-11-21T08:02:17;-2.40;99.90
24676;DHT22;12799;53.690;10.114;2022-11-21T08:04:18;-2.40;99.90
24676;DHT22;12799;53.690;10.114;2022-11-21T08:06:20;-2.40;99.90
24676;DHT22;12799;53.690;10.114;2022-11-21T08:08:23;-2.40;99.90
24676;DHT22;12799;53.690;10.114;2022-11-21T08:10:25;-2.40;99.90
24676;DHT22;12799;53.690;10.114;2022-11-21T08:12:27;-2.40;99.90
24676;DHT22;12799;53.690;10.114;2022-11-21T08:14:28;-2.30;99.90
24676;DHT22;12799;53.690;10.114;2022-11-21T08:16:30;-2.30;99.90
24676;DHT22;12799;53.690;10.114;2022-11-21T08:18:33;-2.30;99.90
24676;DHT22;12799;53.690;10.114;2022-11-21T08:20:35;-2.30;99.90
24676;DHT22;12799;53.690;10.114;2022-11-21T08:22:37;-2.30;99.90
24676;DHT22;12799;53.690;10.114;2022-11-21T08:24:41;-2.20;99.90
24676;DHT22;12799;53.690;10.114;2022-11-21T08:26:43;-2.20;99.90
24676;DHT22;12799;53.690;10.114;2022-11-21T08:28:45;-2.20;99.90
24676;DHT22;12799;53.690;10.114;2022-11-21T08:30:47;-2.20;99.90
24676;DHT22;12799;53.690;10.114;2022-11-21T08:32:48;-2.10;99.90
24676;DHT22;12799;53.690;10.114;2022-11-21T08:34:50;-2.00;99.90
24676;DHT22;12799;53.690;10.114;2022-11-21T08:36:52;-2.00;99.90
24676;DHT22;12799;53.690;10.114;2022-11-21T08:38:53;-1.90;99.90
24676;DHT22;12799;53.690;10.114;2022-11-21T08:40:56;-1.90;99.90
24676;DHT22;12799;53.690;10.114;2022-11-21T08:43:12;-1.80;99.90
24676;DHT22;12799;53.690;10.114;2022-11-21T08:45:14;-1.80;99.90
24676;DHT22;12799;53.690;10.114;2022-11-21T08:47:16;-1.70;99.90
24676;DHT22;12799;53.690;10.114;2022-11-21T08:49:18;-1.70;99.90
24676;DHT22;12799;53.690;10.114;2022-11-21T08:51:20;-1.60;99.90
24676;DHT22;12799;53.690;10.114;2022-11-21T08:53:22;-1.60;99.90
24676;DHT22;12799;53.690;10.114;2022-11-21T08:55:23;-1.50;99.90
24676;DHT22;12799;53.690;10.114;2022-11-21T08:57:26;-1.50;99.90
24676;DHT22;12799;53.690;10.114;2022-11-21T08:59:28;-1.50;99.90
24676;DHT22;12799;53.690;10.114;2022-11-21T09:01:30;-1.50;99.90
24676;DHT22;12799;53.690;10.114;2022-11-21T09:03:32;-1.40;99.90
24676;DHT22;12799;53.690;10.114;2022-11-21T09:05:33;-1.40;99.90
24676;DHT22;12799;53.690;10.114;2022-11-21T09:07:35;-1.30;99.90
24676;DHT22;12799;53.690;10.114;2022-11-21T09:09:37;-1.30;99.90
24676;DHT22;12799;53.690;10.114;2022-11-21T09:11:38;-1.20;99.90
24676;DHT22;12799;53.690;10.114;2022-11-21T09:13:42;-1.20;99.90
24676;DHT22;12799;53.690;10.114;2022-11-21T09:15:43;-1.20;99.90
24676;DHT22;12799;53.690;10.114;2022-11-21T09:18:03;-1.20;99.90
24676;DHT22;12799;53.690;10.114;2022-11-21T09:20:04;-1.10;99.90
24676;DHT22;12799;53.690;10.114;2022-11-21T09:22:06;-1.10;99.90
24676;DHT22;12799;53.690;10.114;2022-11-21T09:24:08;-1.00;99.90
24676;DHT22;12799;53.690;10.114;2022-11-21T09:26:09;-1.00;99.90
24676;DHT22;12799;53.690;10.114;2022-11-21T09:28:11;-0.90;99.90
24676;DHT22;12799;53.690;10.114;2022-11-21T09:30:15;-0.90;99.90
24676;DHT22;12799;53.690;10.114;2022-11-21T09:32:17;-0.90;99.90
24676;DHT22;12799;53.690;10.114;2022-11-21T09:34:18;-0.80;99.90
24676;DHT22;12799;53.690;10.114;2022-11-21T09:36:20;-0.80;99.90
24676;DHT22;12799;53.690;10.114;2022-11-21T09:38:22;-0.80;99.90
24676;DHT22;12799;53.690;10.114;2022-11-21T09:40:23;-0.70;99.90
24676;DHT22;12799;53.690;10.114;2022-11-21T09:42:31;-0.60;99.90
24676;DHT22;12799;53.690;10.114;2022-11-21T09:46:53;-0.70;99.90
24676;DHT22;12799;53.690;10.114;2022-11-21T09:48:58;-0.60;99.90
24676;DHT22;12799;53.690;10.114;2022-11-21T09:51:01;-0.60;99.90
24676;DHT22;12799;53.690;10.114;2022-11-21T09:53:05;-0.50;99.90
24676;DHT22;12799;53.690;10.114;2022-11-21T09:55:12;-0.50;99.90
24676;DHT22;12799;53.690;10.114;2022-11-21T09:57:19;-0.40;99.90
24676;DHT22;12799;53.690;10.114;2022-11-21T09:59:25;-0.30;99.90
24676;DHT22;12799;53.690;10.114;2022-11-21T10:01:29;-0.30;99.90
24676;DHT22;12799;53.690;10.114;2022-11-21T10:03:38;-0.20;99.90
24676;DHT22;12799;53.690;10.114;2022-11-21T10:05:42;-0.10;99.90
24676;DHT22;12799;53.690;10.114;2022-11-21T10:07:44;-0.10;99.90
24676;DHT22;12799;53.690;10.114;2022-11-21T10:09:52;0.00;99.90
24676;DHT22;12799;53.690;10.114;2022-11-21T10:11:59;0.20;99.90
24676;DHT22;12799;53.690;10.114;2022-11-21T10:14:22;0.10;99.90
24676;DHT22;12799;53.690;10.114;2022-11-21T10:16:29;0.30;99.90
24676;DHT22;12799;53.690;10.114;2022-11-21T10:18:49;0.40;99.90
24676;DHT22;12799;53.690;10.114;2022-11-21T10:20:53;0.40;99.90
24676;DHT22;12799;53.690;10.114;2022-11-21T10:23:00;0.40;99.90
24676;DHT22;12799;53.690;10.114;2022-11-21T10:25:10;0.60;99.90
24676;DHT22;12799;53.690;10.114;2022-11-21T10:27:13;0.60;99.90
24676;DHT22;12799;53.690;10.114;2022-11-21T10:29:18;0.60;99.90
24676;DHT22;12799;53.690;10.114;2022-11-21T10:31:22;0.70;99.90
24676;DHT22;12799;53.690;10.114;2022-11-21T10:33:26;0.80;99.90
24676;DHT22;12799;53.690;10.114;2022-11-21T10:35:35;0.70;99.90
24676;DHT22;12799;53.690;10.114;2022-11-21T10:37:41;0.80;99.90
24676;DHT22;12799;53.690;10.114;2022-11-21T10:39:45;0.80;99.90
24676;DHT22;12799;53.690;10.114;2022-11-21T10:41:49;0.90;99.90
24676;DHT22;12799;53.690;10.114;2022-11-21T10:43:55;0.90;99.90
24676;DHT22;12799;53.690;10.114;2022-11-21T10:46:17;1.00;99.90
24676;DHT22;12799;53.690;10.114;2022-11-21T10:48:20;1.00;99.90
24676;DHT22;12799;53.690;10.114;2022-11-21T10:50:31;1.00;99.90
24676;DHT22;12799;53.690;10.114;2022-11-21T10:52:38;1.10;99.90
24676;DHT22;12799;53.690;10.114;2022-11-21T10:55:03;1.20;99.90
24676;DHT22;12799;53.690;10.114;2022-11-21T10:57:17;1.20;99.90
24676;DHT22;12799;53.690;10.114;2022-11-21T10:59:21;1.30;99.90
24676;DHT22;12799;53.690;10.114;2022-11-21T11:01:25;1.40;99.90
24676;DHT22;12799;53.690;10.114;2022-11-21T11:03:27;1.50;99.90
24676;DHT22;12799;53.690;10.114;2022-11-21T11:05:31;1.50;99.90
24676;DHT22;12799;53.690;10.114;2022-11-21T11:07:32;1.70;99.90
24676;DHT22;12799;53.690;10.114;2022-11-21T11:09:36;1.80;99.90
24676;DHT22;12799;53.690;10.114;2022-11-21T11:11:38;1.80;99.90
24676;DHT22;12799;53.690;10.114;2022-11-21T11:13:49;1.80;99.90
24676;DHT22;12799;53.690;10.114;2022-11-21T11:15:55;1.90;99.90
24676;DHT22;12799;53.690;10.114;2022-11-21T11:17:59;2.00;99.90
24676;DHT22;12799;53.690;10.114;2022-11-21T11:20:03;2.00;99.90
24676;DHT22;12799;53.690;10.114;2022-11-21T11:22:06;2.10;99.90
24676;DHT22;12799;53.690;10.114;2022-11-21T11:24:26;2.10;99.90
24676;DHT22;12799;53.690;10.114;2022-11-21T11:26:30;2.20;99.90
24676;DHT22;12799;53.690;10.114;2022-11-21T11:28:33;2.30;99.90
24676;DHT22;12799;53.690;10.114;2022-11-21T11:30:35;2.30;99.90
24676;DHT22;12799;53.690;10.114;2022-11-21T11:32:38;2.30;99.90
24676;DHT22;12799;53.690;10.114;2022-11-21T11:34:40;2.30;99.90
24676;DHT22;12799;53.690;10.114;2022-11-21T11:39:08;2.30;99.90
24676;DHT22;12799;53.690;10.114;2022-11-21T11:41:13;2.40;99.90
24676;DHT22;12799;53.690;10.114;2022-11-21T11:43:25;2.50;99.90
24676;DHT22;12799;53.690;10.114;2022-11-21T11:45:54;2.50;99.90
24676;DHT22;12799;53.690;10.114;2022-11-21T11:48:18;2.60;99.90
24676;DHT22;12799;53.690;10.114;2022-11-21T11:50:20;2.60;99.90
24676;DHT22;12799;53.690;10.114;2022-11-21T11:52:24;2.60;99.90
24676;DHT22;12799;53.690;10.114;2022-11-21T11:54:28;2.70;99.90
24676;DHT22;12799;53.690;10.114;2022-11-21T11:56:31;2.90;99.90
24676;DHT22;12799;53.690;10.114;2022-11-21T11:58:37;2.90;99.90
24676;DHT22;12799;53.690;10.114;2022-11-21T12:00:41;3.00;99.90
24676;DHT22;12799;53.690;10.114;2022-11-21T12:02:47;3.10;99.90
24676;DHT22;12799;53.690;10.114;2022-11-21T12:04:53;3.10;99.90
24676;DHT22;12799;53.690;10.114;2022-11-21T12:06:56;3.20;99.90
24676;DHT22;12799;53.690;10.114;2022-11-21T12:09:01;3.20;99.90
24676;DHT22;12799;53.690;10.114;2022-11-21T12:11:19;3.20;99.90
24676;DHT22;12799;53.690;10.114;2022-11-21T12:13:43;3.20;99.90
24676;DHT22;12799;53.690;10.114;2022-11-21T12:15:45;3.30;99.90
24676;DHT22;12799;53.690;10.114;2022-11-21T12:17:50;3.30;99.90
24676;DHT22;12799;53.690;10.114;2022-11-21T12:19:54;3.30;99.90
24676;DHT22;12799;53.690;10.114;2022-11-21T12:21:58;3.40;99.90
24676;DHT22;12799;53.690;10.114;2022-11-21T12:24:01;3.40;99.90
24676;DHT22;12799;53.690;10.114;2022-11-21T12:26:11;3.50;99.90
24676;DHT22;12799;53.690;10.114;2022-11-21T12:28:17;3.70;99.90
24676;DHT22;12799;53.690;10.114;2022-11-21T12:30:28;3.90;99.90
24676;DHT22;12799;53.690;10.114;2022-11-21T12:32:36;4.00;99.90
24676;DHT22;12799;53.690;10.114;2022-11-21T12:34:44;4.10;99.90
24676;DHT22;12799;53.690;10.114;2022-11-21T12:36:51;4.20;99.90
24676;DHT22;12799;53.690;10.114;2022-11-21T12:41:25;4.30;99.90
24676;DHT22;12799;53.690;10.114;2022-11-21T12:43:46;4.30;99.90
24676;DHT22;12799;53.690;10.114;2022-11-21T12:45:51;4.30;99.90
24676;DHT22;12799;53.690;10.114;2022-11-21T12:48:02;4.30;99.90
24676;DHT22;12799;53.690;10.114;2022-11-21T12:50:25;4.30;99.90
24676;DHT22;12799;53.690;10.114;2022-11-21T12:52:46;4.30;99.90
24676;DHT22;12799;53.690;10.114;2022-11-21T12:55:13;4.30;99.90
24676;DHT22;12799;53.690;10.114;2022-11-21T12:57:18;4.20;99.90
24676;DHT22;12799;53.690;10.114;2022-11-21T12:59:20;4.10;99.90